createdAt,value
2023-08-12T00:01:13.234Z,9.55
2023-08-12T00:03:40.420Z,10.30
2023-08-12T00:06:07.990Z,10.25
2023-08-12T00:08:35.178Z,11.18
2023-08-12T00:11:02.244Z,10.23
2023-08-12T00:13:29.340Z,10.30
2023-08-12T00:15:56.669Z,9.77
2023-08-12T00:18:24.170Z,10.25
2023-08-12T00:20:52.381Z,10.40
2023-08-12T00:23:19.631Z,10.25
2023-08-12T00:25:46.748Z,10.00
2023-08-12T00:28:14.258Z,10.63
2023-08-12T00:30:41.784Z,10.32
2023-08-12T00:33:09.221Z,10.10
2023-08-12T00:35:36.843Z,10.90
2023-08-12T00:38:04.118Z,10.05
2023-08-12T00:40:31.272Z,10.52
2023-08-12T00:42:58.329Z,9.93
2023-08-12T00:45:25.909Z,10.45
2023-08-12T00:47:53.185Z,9.85
2023-08-12T00:50:21.145Z,10.65
2023-08-12T00:52:50.224Z,10.18
2023-08-12T00:55:19.082Z,10.02
2023-08-12T00:57:46.376Z,10.00
2023-08-12T01:00:15.210Z,9.52
2023-08-12T01:02:49.264Z,9.70
2023-08-12T01:05:17.735Z,10.07
2023-08-12T01:07:46.328Z,9.85
2023-08-12T01:10:16.848Z,9.80
2023-08-12T01:13:07.566Z,10.07
2023-08-12T01:15:35.749Z,9.65
2023-08-12T01:18:04.917Z,9.98
2023-08-12T01:20:32.706Z,10.23
2023-08-12T01:23:16.501Z,10.32
2023-08-12T01:25:44.051Z,9.63
2023-08-12T01:28:11.381Z,10.05
2023-08-12T01:30:58.383Z,9.73
2023-08-12T01:33:57.829Z,9.32
2023-08-12T01:36:28.593Z,9.50
2023-08-12T01:39:02.463Z,8.93
2023-08-12T01:41:31.066Z,8.40
2023-08-12T01:43:58.480Z,9.07
2023-08-12T01:46:25.588Z,8.40
2023-08-12T01:48:52.773Z,8.90
2023-08-12T01:51:19.790Z,8.70
2023-08-12T01:53:46.890Z,8.82
2023-08-12T01:56:14.038Z,8.25
2023-08-12T01:58:41.280Z,8.23
2023-08-12T02:01:08.318Z,8.57
2023-08-12T02:03:35.559Z,9.02
2023-08-12T02:06:02.662Z,8.43
2023-08-12T02:08:29.809Z,8.70
2023-08-12T02:10:56.864Z,9.63
2023-08-12T02:13:23.938Z,9.23
2023-08-12T02:15:50.999Z,8.63
2023-08-12T02:18:18.141Z,8.45
2023-08-12T02:20:47.977Z,8.10
2023-08-12T02:23:15.357Z,9.02
2023-08-12T02:25:42.426Z,7.75
2023-08-12T02:28:09.455Z,7.90
2023-08-12T02:30:36.513Z,8.85
2023-08-12T02:33:03.866Z,8.18
2023-08-12T02:35:30.900Z,8.35
2023-08-12T02:37:57.938Z,8.05
2023-08-12T02:40:25.023Z,7.80
2023-08-12T02:42:52.073Z,7.57
2023-08-12T02:45:19.499Z,7.95
2023-08-12T02:47:46.546Z,8.10
2023-08-12T02:50:13.738Z,7.13
2023-08-12T02:52:40.742Z,7.63
2023-08-12T02:55:08.435Z,7.05
2023-08-12T02:57:35.449Z,7.63
2023-08-12T03:00:02.485Z,7.47
2023-08-12T03:02:29.874Z,7.95
2023-08-12T03:04:57.125Z,7.30
2023-08-12T03:07:24.668Z,6.32
2023-08-12T03:09:51.712Z,6.40
2023-08-12T03:12:18.864Z,6.47
2023-08-12T03:14:45.969Z,6.28
2023-08-12T03:17:13.500Z,5.47
2023-08-12T03:19:41.843Z,6.35
2023-08-12T03:22:08.956Z,6.45
2023-08-12T03:24:38.830Z,6.30
2023-08-12T03:27:05.883Z,6.40
2023-08-12T03:29:33.251Z,6.22
2023-08-12T03:32:01.116Z,6.35
2023-08-12T03:34:33.288Z,6.13
2023-08-12T03:37:00.327Z,5.72
2023-08-12T03:39:28.063Z,5.63
2023-08-12T03:41:56.037Z,6.20
2023-08-12T03:44:23.075Z,6.00
2023-08-12T03:46:50.181Z,5.18
2023-08-12T03:49:18.130Z,5.22
2023-08-12T03:51:46.853Z,5.50
2023-08-12T03:54:14.023Z,5.10
2023-08-12T03:56:41.174Z,5.47
2023-08-12T03:59:08.711Z,4.90
2023-08-12T04:01:38.020Z,5.40
2023-08-12T04:04:05.900Z,5.90
2023-08-12T04:06:32.965Z,5.22
2023-08-12T04:09:00.026Z,4.60
2023-08-12T04:11:27.266Z,4.38
2023-08-12T04:13:54.253Z,4.63
2023-08-12T04:16:21.273Z,4.93
2023-08-12T04:18:49.163Z,5.20
2023-08-12T04:21:16.194Z,6.30
2023-08-12T04:23:43.227Z,5.93
2023-08-12T04:26:10.574Z,5.35
2023-08-12T04:28:37.670Z,4.82
2023-08-12T04:31:09.133Z,5.18
2023-08-12T04:33:38.020Z,4.85
2023-08-12T04:36:05.579Z,4.72
2023-08-12T04:38:33.215Z,5.40
2023-08-12T04:41:02.273Z,6.00
2023-08-12T04:43:29.335Z,4.85
2023-08-12T04:45:56.449Z,5.00
2023-08-12T04:48:23.620Z,4.88
2023-08-12T04:50:50.706Z,4.57
2023-08-12T04:53:18.874Z,4.22
2023-08-12T04:55:47.467Z,3.80
2023-08-12T04:58:15.311Z,4.22
2023-08-12T05:00:43.210Z,4.25
2023-08-12T05:03:10.278Z,3.20
2023-08-12T05:05:37.342Z,3.40
2023-08-12T05:08:04.769Z,3.33
2023-08-12T05:10:32.888Z,4.13
2023-08-12T05:13:00.216Z,3.90
2023-08-12T05:15:27.835Z,4.18
2023-08-12T05:17:55.996Z,3.65
2023-08-12T05:20:23.841Z,3.63
2023-08-12T05:22:50.947Z,4.45
2023-08-12T05:25:18.056Z,3.85
2023-08-12T05:27:45.080Z,3.55
2023-08-12T05:30:12.940Z,3.97
2023-08-12T05:32:39.966Z,4.45
2023-08-12T05:35:07.453Z,3.55
2023-08-12T05:37:34.494Z,4.68
2023-08-12T05:40:01.568Z,3.65
2023-08-12T05:42:28.821Z,4.53
2023-08-12T05:44:55.850Z,3.60
2023-08-12T05:47:22.830Z,3.90
2023-08-12T05:49:50.146Z,3.50
2023-08-12T05:52:17.410Z,3.95
2023-08-12T05:54:44.527Z,3.47
2023-08-12T05:57:11.567Z,3.45
2023-08-12T05:59:38.607Z,3.75
2023-08-12T06:02:05.652Z,3.90
2023-08-12T06:04:32.688Z,3.47
2023-08-12T06:06:59.724Z,3.20
2023-08-12T06:09:26.817Z,3.72
2023-08-12T06:11:53.850Z,3.80
2023-08-12T06:14:20.851Z,3.47
2023-08-12T06:16:47.879Z,3.70
2023-08-12T06:19:14.901Z,3.65
2023-08-12T06:21:41.900Z,4.00
2023-08-12T06:24:09.070Z,3.70
2023-08-12T06:26:36.109Z,3.40
2023-08-12T06:29:05.965Z,3.50
2023-08-12T06:31:33.584Z,3.78
2023-08-12T06:34:00.617Z,3.13
2023-08-12T06:36:27.886Z,3.95
2023-08-12T06:38:54.902Z,4.03
2023-08-12T06:41:21.936Z,3.33
2023-08-12T06:43:49.025Z,3.53
2023-08-12T06:46:16.233Z,3.65
2023-08-12T06:48:43.321Z,4.30
2023-08-12T06:51:12.933Z,3.00
2023-08-12T06:53:40.905Z,2.95
2023-08-12T06:56:07.973Z,3.20
2023-08-12T06:58:35.003Z,2.72
2023-08-12T07:01:02.116Z,2.50
2023-08-12T07:03:29.320Z,2.70
2023-08-12T07:05:56.476Z,2.17
2023-08-12T07:08:23.587Z,2.33
2023-08-12T07:10:51.014Z,2.47
2023-08-12T07:13:18.045Z,3.10
2023-08-12T07:15:45.290Z,2.80
2023-08-12T07:18:12.413Z,2.67
2023-08-12T07:20:39.470Z,2.40
2023-08-12T07:23:06.447Z,2.28
2023-08-12T07:25:33.586Z,2.10
2023-08-12T07:28:00.824Z,1.70
2023-08-12T07:30:27.881Z,1.48
2023-08-12T07:32:54.979Z,2.03
2023-08-12T07:35:22.057Z,2.80
2023-08-12T07:37:49.091Z,1.98
2023-08-12T07:40:16.472Z,2.30
2023-08-12T07:42:43.466Z,2.08
2023-08-12T07:45:11.019Z,2.45
2023-08-12T07:47:40.291Z,2.80
2023-08-12T07:50:08.291Z,2.80
2023-08-12T07:52:35.296Z,3.78
2023-08-12T07:55:03.468Z,2.92
2023-08-12T07:57:30.461Z,2.88
2023-08-12T07:59:57.546Z,2.30
2023-08-12T08:02:24.624Z,2.25
2023-08-12T08:04:51.790Z,2.00
2023-08-12T08:07:19.088Z,2.78
2023-08-12T08:09:46.233Z,1.80
2023-08-12T08:12:13.910Z,1.70
2023-08-12T08:14:41.264Z,1.70
2023-08-12T08:17:08.802Z,1.63
2023-08-12T08:19:36.352Z,1.83
2023-08-12T08:22:04.146Z,1.60
2023-08-12T08:24:31.223Z,1.80
2023-08-12T08:26:58.327Z,1.52
2023-08-12T08:29:25.789Z,1.65
2023-08-12T08:31:52.928Z,2.35
2023-08-12T08:34:20.437Z,1.70
2023-08-12T08:36:47.446Z,1.35
2023-08-12T08:39:14.587Z,1.80
2023-08-12T08:41:42.205Z,1.60
2023-08-12T08:44:10.550Z,1.70
2023-08-12T08:46:38.423Z,1.50
2023-08-12T08:49:07.100Z,1.50
2023-08-12T08:51:34.231Z,1.75
2023-08-12T08:54:06.350Z,1.50
2023-08-12T08:56:33.968Z,1.40
2023-08-12T08:59:02.797Z,1.42
2023-08-12T09:01:31.676Z,1.33
2023-08-12T09:03:59.895Z,1.50
2023-08-12T09:06:29.396Z,1.35
2023-08-12T09:08:57.002Z,1.15
2023-08-12T09:11:24.984Z,1.42
2023-08-12T09:13:51.993Z,1.30
2023-08-12T09:16:19.977Z,1.20
2023-08-12T09:18:47.042Z,1.30
2023-08-12T09:21:14.244Z,1.30
2023-08-12T09:23:43.280Z,1.35
2023-08-12T09:26:21.789Z,1.20
2023-08-12T09:28:49.889Z,1.38
2023-08-12T09:31:29.789Z,1.50
2023-08-12T09:34:05.522Z,1.30
2023-08-12T09:36:32.712Z,1.25
2023-08-12T09:38:59.832Z,1.17
2023-08-12T09:41:30.222Z,1.60
2023-08-12T09:44:00.527Z,1.13
2023-08-12T09:46:28.793Z,1.35
2023-08-12T09:48:55.831Z,1.25
2023-08-12T09:51:23.357Z,1.33
2023-08-12T09:53:51.268Z,1.25
2023-08-12T09:56:24.091Z,1.48
2023-08-12T09:58:53.930Z,1.20
2023-08-12T10:01:22.855Z,1.10
2023-08-12T10:03:54.812Z,1.13
2023-08-12T10:06:22.288Z,1.42
2023-08-12T10:08:51.278Z,1.35
2023-08-12T10:11:18.630Z,1.13
2023-08-12T10:13:46.475Z,1.33
2023-08-12T10:16:14.910Z,1.42
2023-08-12T10:18:43.233Z,1.60
2023-08-12T10:21:14.907Z,1.25
2023-08-12T10:23:46.614Z,1.48
2023-08-12T10:26:18.656Z,1.20
2023-08-12T10:28:45.689Z,1.40
2023-08-12T10:31:13.404Z,1.40
2023-08-12T10:33:41.054Z,1.30
2023-08-12T10:36:09.557Z,1.60
2023-08-12T10:38:37.362Z,4.38
2023-08-12T10:41:22.119Z,1.70
2023-08-12T10:43:59.704Z,1.20
2023-08-12T10:46:38.165Z,1.50
2023-08-12T10:49:11.594Z,1.77
2023-08-12T10:51:55.845Z,1.60
2023-08-12T10:54:31.314Z,1.75
2023-08-12T10:57:04.407Z,1.50
2023-08-12T10:59:47.023Z,1.60
2023-08-12T11:02:34.097Z,1.60
2023-08-12T11:05:09.733Z,1.67
2023-08-12T11:07:59.644Z,1.50
2023-08-12T11:10:33.787Z,1.63
2023-08-12T11:13:04.135Z,1.80
2023-08-12T11:15:43.036Z,1.70
2023-08-12T11:18:14.041Z,1.70
2023-08-12T11:20:41.507Z,1.70
2023-08-12T11:23:10.665Z,1.70
2023-08-12T11:25:51.159Z,1.92
2023-08-12T11:28:20.931Z,8.68
2023-08-12T11:30:48.172Z,1.88
2023-08-12T11:33:22.113Z,1.63
2023-08-12T11:35:49.394Z,1.77
2023-08-12T11:38:16.684Z,1.67
2023-08-12T11:40:44.480Z,1.70
2023-08-12T11:43:11.510Z,1.67
2023-08-12T11:45:43.039Z,1.60
2023-08-12T11:48:11.530Z,1.30
2023-08-12T11:50:39.940Z,1.13
2023-08-12T11:53:07.484Z,1.23
2023-08-12T11:55:34.861Z,1.20
2023-08-12T11:58:02.022Z,1.48
2023-08-12T12:00:29.485Z,1.33
2023-08-12T12:02:57.522Z,1.30
2023-08-12T12:05:35.788Z,1.50
2023-08-12T12:08:05.253Z,1.35
2023-08-12T12:10:35.680Z,1.20
2023-08-12T12:13:05.624Z,1.02
2023-08-12T12:15:42.225Z,0.93
2023-08-12T12:18:14.180Z,0.70
2023-08-12T12:20:58.690Z,0.65
2023-08-12T12:23:32.604Z,0.70
2023-08-12T12:26:04.694Z,0.80
2023-08-12T12:28:32.167Z,0.90
2023-08-12T12:30:59.356Z,0.60
2023-08-12T12:33:26.474Z,0.73
2023-08-12T12:35:58.773Z,0.80
2023-08-12T12:38:28.247Z,1.10
2023-08-12T12:40:55.419Z,0.73
2023-08-12T12:43:22.455Z,1.10
2023-08-12T12:45:49.546Z,1.13
2023-08-12T12:48:16.642Z,1.10
2023-08-12T12:50:43.647Z,0.93
2023-08-12T12:53:10.629Z,1.42
2023-08-12T12:55:37.733Z,1.08
2023-08-12T12:58:04.993Z,1.17
2023-08-12T13:00:31.999Z,1.00
2023-08-12T13:02:59.604Z,1.25
2023-08-12T13:05:26.686Z,1.08
2023-08-12T13:07:53.730Z,0.75
2023-08-12T13:10:20.983Z,0.70
2023-08-12T13:12:48.011Z,0.80
2023-08-12T13:15:15.211Z,1.00
2023-08-12T13:17:42.309Z,1.02
2023-08-12T13:20:10.756Z,0.85
2023-08-12T13:22:37.813Z,0.70
2023-08-12T13:25:05.270Z,0.93
2023-08-12T13:27:32.723Z,1.00
2023-08-12T13:29:59.709Z,1.02
2023-08-12T13:32:26.804Z,0.85
2023-08-12T13:34:53.787Z,0.98
2023-08-12T13:37:20.791Z,0.90
2023-08-12T13:39:47.786Z,1.00
2023-08-12T13:42:15.092Z,0.98
2023-08-12T13:44:42.423Z,1.10
2023-08-12T13:47:09.400Z,1.45
2023-08-12T13:49:36.438Z,0.88
2023-08-12T13:52:03.847Z,1.13
2023-08-12T13:54:30.954Z,1.00
2023-08-12T13:56:57.990Z,1.00
2023-08-12T13:59:24.955Z,0.90
2023-08-12T14:01:51.965Z,1.02
2023-08-12T14:04:19.021Z,0.98
2023-08-12T14:06:47.277Z,1.10
2023-08-12T14:09:15.134Z,1.40
2023-08-12T14:11:42.177Z,0.90
2023-08-12T14:14:09.307Z,1.20
2023-08-12T14:16:36.973Z,1.10
2023-08-12T14:19:04.525Z,1.00
2023-08-12T14:21:31.546Z,1.05
2023-08-12T14:23:58.597Z,1.13
2023-08-12T14:26:25.580Z,1.20
2023-08-12T14:28:52.582Z,1.30
2023-08-12T14:31:19.702Z,1.27
2023-08-12T14:33:46.747Z,1.75
2023-08-12T14:36:13.716Z,1.42
2023-08-12T14:38:40.774Z,1.60
2023-08-12T14:41:07.906Z,1.90
2023-08-12T14:43:34.929Z,1.13
2023-08-12T14:46:02.226Z,1.90
2023-08-12T14:48:29.585Z,1.55
2023-08-12T14:50:56.781Z,1.55
2023-08-12T14:53:25.288Z,1.70
2023-08-12T14:55:52.621Z,1.23
2023-08-12T14:58:19.696Z,1.80
2023-08-12T15:00:49.947Z,1.30
2023-08-12T15:03:17.186Z,2.40
2023-08-12T15:05:44.393Z,2.00
2023-08-12T15:08:11.363Z,1.50
2023-08-12T15:10:38.852Z,1.42
2023-08-12T15:13:06.550Z,1.52
2023-08-12T15:15:33.553Z,1.48
2023-08-12T15:18:01.284Z,1.70
2023-08-12T15:20:30.221Z,1.90
2023-08-12T15:22:58.454Z,1.33
2023-08-12T15:25:26.289Z,1.60
2023-08-12T15:27:53.276Z,2.30
2023-08-12T15:30:20.522Z,2.00
2023-08-12T15:32:47.550Z,2.08
2023-08-12T15:35:14.585Z,1.85
2023-08-12T15:37:41.599Z,2.25
2023-08-12T15:40:09.939Z,1.70
2023-08-12T15:42:36.936Z,1.95
2023-08-12T15:45:04.721Z,2.30
2023-08-12T15:47:33.682Z,1.98
2023-08-12T15:50:00.694Z,2.22
2023-08-12T15:52:27.915Z,2.42
2023-08-12T15:54:54.898Z,2.50
2023-08-12T15:57:21.868Z,1.95
2023-08-12T15:59:48.857Z,2.10
2023-08-12T16:02:16.088Z,2.95
2023-08-12T16:04:43.594Z,2.70
2023-08-12T16:07:10.694Z,3.55
2023-08-12T16:09:37.726Z,2.40
2023-08-12T16:12:05.289Z,2.08
2023-08-12T16:14:32.315Z,2.50
2023-08-12T16:16:59.366Z,2.20
2023-08-12T16:19:27.942Z,2.10
2023-08-12T16:21:56.493Z,2.00
2023-08-12T16:24:23.450Z,1.73
2023-08-12T16:26:50.450Z,1.92
2023-08-12T16:29:17.421Z,1.60
2023-08-12T16:31:44.464Z,1.75
2023-08-12T16:34:11.560Z,2.50
2023-08-12T16:36:38.531Z,1.90
2023-08-12T16:39:07.465Z,1.92
2023-08-12T16:41:34.551Z,2.47
2023-08-12T16:44:01.595Z,2.10
2023-08-12T16:46:28.974Z,2.50
2023-08-12T16:48:56.242Z,2.05
2023-08-12T16:51:23.310Z,2.63
2023-08-12T16:53:50.320Z,2.38
2023-08-12T16:56:17.388Z,2.40
2023-08-12T16:58:44.933Z,2.40
2023-08-12T17:01:12.166Z,1.92
2023-08-12T17:03:39.334Z,2.30
2023-08-12T17:06:06.366Z,1.73
2023-08-12T17:08:33.360Z,2.53
2023-08-12T17:11:09.630Z,2.78
2023-08-12T17:13:36.711Z,1.92
2023-08-12T17:16:04.164Z,2.30
2023-08-12T17:18:31.432Z,2.47
2023-08-12T17:20:58.417Z,2.53
2023-08-12T17:23:25.540Z,2.92
2023-08-12T17:25:52.565Z,2.40
2023-08-12T17:28:19.570Z,2.20
2023-08-12T17:30:46.670Z,2.15
2023-08-12T17:33:13.666Z,2.10
2023-08-12T17:35:41.200Z,2.40
2023-08-12T17:38:08.279Z,2.00
2023-08-12T17:40:35.316Z,1.85
2023-08-12T17:43:02.967Z,2.30
2023-08-12T17:45:30.039Z,2.10
2023-08-12T17:48:04.237Z,1.88
2023-08-12T17:50:31.758Z,2.30
2023-08-12T17:52:59.240Z,2.28
2023-08-12T17:55:26.292Z,2.33
2023-08-12T17:57:53.429Z,2.45
2023-08-12T18:00:22.788Z,2.35
2023-08-12T18:02:50.369Z,2.28
2023-08-12T18:05:17.532Z,2.22
2023-08-12T18:07:44.668Z,2.40
2023-08-12T18:10:12.564Z,2.35
2023-08-12T18:12:40.533Z,2.90
2023-08-12T18:15:08.175Z,2.47
2023-08-12T18:17:35.470Z,2.63
2023-08-12T18:20:05.927Z,2.97
2023-08-12T18:22:33.776Z,3.03
2023-08-12T18:25:01.543Z,2.70
2023-08-12T18:27:29.806Z,3.83
2023-08-12T18:29:57.849Z,2.63
2023-08-12T18:32:27.688Z,3.20
2023-08-12T18:34:56.624Z,3.58
2023-08-12T18:37:24.260Z,2.78
2023-08-12T18:39:51.400Z,3.92
2023-08-12T18:42:18.558Z,3.63
2023-08-12T18:44:45.642Z,2.40
2023-08-12T18:47:15.133Z,2.90
2023-08-12T18:49:44.174Z,2.97
2023-08-12T18:52:11.975Z,3.67
2023-08-12T18:54:39.155Z,4.57
2023-08-12T18:57:06.294Z,5.10
2023-08-12T18:59:33.357Z,2.35
2023-08-12T19:02:00.531Z,2.45
2023-08-12T19:04:27.789Z,4.25
2023-08-12T19:06:54.972Z,2.70
2023-08-12T19:09:22.348Z,2.40
2023-08-12T19:11:49.626Z,2.22
2023-08-12T19:14:16.689Z,2.20
2023-08-12T19:16:43.673Z,2.22
2023-08-12T19:19:11.713Z,2.40
2023-08-12T19:21:39.398Z,2.88
2023-08-12T19:24:06.913Z,2.90
2023-08-12T19:26:35.023Z,3.30
2023-08-12T19:29:02.752Z,4.05
2023-08-12T19:31:29.966Z,2.80
2023-08-12T19:33:57.716Z,2.53
2023-08-12T19:36:25.793Z,2.88
2023-08-12T19:38:53.392Z,2.40
2023-08-12T19:41:20.555Z,2.30
2023-08-12T19:43:47.568Z,3.15
2023-08-12T19:46:14.611Z,3.45
2023-08-12T19:48:53.554Z,2.78
2023-08-12T19:51:20.574Z,2.78
2023-08-12T19:53:48.431Z,2.55
2023-08-12T19:56:15.811Z,2.63
2023-08-12T19:58:43.042Z,2.58
2023-08-12T20:01:10.307Z,2.53
2023-08-12T20:03:37.411Z,2.30
2023-08-12T20:06:05.392Z,2.22
2023-08-12T20:08:32.452Z,2.38
2023-08-12T20:10:59.441Z,2.85
2023-08-12T20:13:26.850Z,2.30
2023-08-12T20:15:58.798Z,3.47
2023-08-12T20:18:27.611Z,2.90
2023-08-12T20:20:55.228Z,3.67
2023-08-12T20:23:22.467Z,3.00
2023-08-12T20:25:51.093Z,3.38
2023-08-12T20:28:18.135Z,3.65
2023-08-12T20:30:45.482Z,2.83
2023-08-12T20:33:12.599Z,2.85
2023-08-12T20:35:39.772Z,3.47
2023-08-12T20:38:06.836Z,3.38
2023-08-12T20:40:34.361Z,3.95
2023-08-12T20:43:01.463Z,2.97
2023-08-12T20:45:28.852Z,2.38
2023-08-12T20:47:55.965Z,2.67
2023-08-12T20:50:23.090Z,2.65
2023-08-12T20:52:50.124Z,2.67
2023-08-12T20:55:17.283Z,2.65
2023-08-12T20:57:44.349Z,3.42
2023-08-12T21:00:13.209Z,3.50
2023-08-12T21:02:47.379Z,2.60
2023-08-12T21:05:14.498Z,2.78
2023-08-12T21:07:42.330Z,2.60
2023-08-12T21:10:11.096Z,2.90
2023-08-12T21:12:39.086Z,3.10
2023-08-12T21:15:07.126Z,3.15
2023-08-12T21:17:34.449Z,3.17
2023-08-12T21:20:01.514Z,3.08
2023-08-12T21:22:28.603Z,2.90
2023-08-12T21:24:55.659Z,2.63
2023-08-12T21:27:22.919Z,2.78
2023-08-12T21:29:51.909Z,2.47
2023-08-12T21:32:18.943Z,2.55
2023-08-12T21:34:46.027Z,2.78
2023-08-12T21:37:14.444Z,2.50
2023-08-12T21:39:41.606Z,2.60
2023-08-12T21:42:09.233Z,2.85
2023-08-12T21:44:36.711Z,2.83
2023-08-12T21:47:03.727Z,2.88
2023-08-12T21:49:30.782Z,2.53
2023-08-12T21:51:57.745Z,2.60
2023-08-12T21:54:24.780Z,2.05
2023-08-12T21:56:51.889Z,2.40
2023-08-12T21:59:20.155Z,2.45
2023-08-12T22:01:48.357Z,3.50
2023-08-12T22:04:15.548Z,3.05
2023-08-12T22:06:42.538Z,2.33
2023-08-12T22:09:09.853Z,2.60
2023-08-12T22:11:36.910Z,2.58
2023-08-12T22:14:04.113Z,2.80
2023-08-12T22:16:31.940Z,3.15
2023-08-12T22:18:59.018Z,3.10
2023-08-12T22:21:26.065Z,3.10
2023-08-12T22:23:53.464Z,2.75
2023-08-12T22:26:20.597Z,4.22
2023-08-12T22:28:48.226Z,3.33
2023-08-12T22:31:15.346Z,3.53
2023-08-12T22:33:42.745Z,3.08
2023-08-12T22:36:09.911Z,4.03
2023-08-12T22:38:37.652Z,3.65
2023-08-12T22:41:04.741Z,3.70
2023-08-12T22:43:31.811Z,3.50
2023-08-12T22:45:58.912Z,3.03
2023-08-12T22:48:26.027Z,3.43
2023-08-12T22:50:53.939Z,3.30
2023-08-12T22:53:21.054Z,2.97
2023-08-12T22:55:48.436Z,3.28
2023-08-12T22:58:16.158Z,2.72
2023-08-12T23:00:43.313Z,3.45
2023-08-12T23:03:10.413Z,2.90
2023-08-12T23:05:37.537Z,3.05
2023-08-12T23:08:05.011Z,3.20
2023-08-12T23:10:33.064Z,3.10
2023-08-12T23:13:00.087Z,3.87
2023-08-12T23:15:27.099Z,2.70
2023-08-12T23:17:54.180Z,2.83
2023-08-12T23:20:21.224Z,2.60
2023-08-12T23:22:48.300Z,2.90
2023-08-12T23:25:16.394Z,2.75
2023-08-12T23:27:43.517Z,2.90
2023-08-12T23:30:15.138Z,2.90
2023-08-12T23:32:46.125Z,2.80
2023-08-12T23:35:14.449Z,3.03
2023-08-12T23:37:41.841Z,2.90
2023-08-12T23:40:09.764Z,2.90
2023-08-12T23:42:36.791Z,3.40
2023-08-12T23:45:05.068Z,2.75
2023-08-12T23:47:32.147Z,3.10
2023-08-12T23:49:59.185Z,2.92
2023-08-12T23:52:26.518Z,3.15
2023-08-12T23:54:53.845Z,3.30
2023-08-12T23:57:20.852Z,3.38
2023-08-12T23:59:48.167Z,3.33
